sensor_id;sensor_type;location;lat;lon;timestamp;pressure;altitude;pressure_sealevel;temperature;humidity
19596;BME280;9945;46.010;8.946;2023-03-03T00:01:13;97306.78;;;9.56;75.67
19596;BME280;9945;46.010;8.946;2023-03-03T00:03:40;97305.44;;;9.52;75.94
19596;BME280;9945;46.010;8.946;2023-03-03T00:06:09;97296.78;;;9.42;75.92
19596;BME280;9945;46.010;8.946;2023-03-03T00:08:36;97296.50;;;9.35;75.69
19596;BME280;9945;46.010;8.946;2023-03-03T00:11:03;97303.66;;;9.33;75.75
19596;BME280;9945;46.010;8.946;2023-03-03T00:13:40;97300.22;;;9.33;75.96
19596;BME280;9945;46.010;8.946;2023-03-03T00:16:14;97300.09;;;9.25;75.48
19596;BME280;9945;46.010;8.946;2023-03-03T00:18:42;97297.47;;;9.25;76.62
19596;BME280;9945;46.010;8.946;2023-03-03T00:21:27;97294.84;;;9.25;75.10
19596;BME280;9945;46.010;8.946;2023-03-03T00:24:02;97295.13;;;9.22;76.02
19596;BME280;9945;46.010;8.946;2023-03-03T00:26:38;97302.97;;;9.22;77.12
19596;BME280;9945;46.010;8.946;2023-03-03T00:29:26;97298.81;;;9.19;75.49
19596;BME280;9945;46.010;8.946;2023-03-03T00:31:53;97291.53;;;9.13;76.09
19596;BME280;9945;46.010;8.946;2023-03-03T00:34:24;97288.66;;;9.16;77.30
19596;BME280;9945;46.010;8.946;2023-03-03T00:36:53;97296.91;;;9.11;75.72
19596;BME280;9945;46.010;8.946;2023-03-03T00:39:26;97288.22;;;9.11;75.63
19596;BME280;9945;46.010;8.946;2023-03-03T00:41:55;97289.06;;;9.11;76.04
19596;BME280;9945;46.010;8.946;2023-03-03T00:44:41;97292.09;;;9.07;76.28
19596;BME280;9945;46.010;8.946;2023-03-03T00:47:29;97288.94;;;9.03;76.03
19596;BME280;9945;46.010;8.946;2023-03-03T00:53:05;97294.00;;;9.05;75.70
19596;BME280;9945;46.010;8.946;2023-03-03T00:55:33;97284.38;;;8.96;76.88
19596;BME280;9945;46.010;8.946;2023-03-03T00:58:01;97283.16;;;8.90;78.21
19596;BME280;9945;46.010;8.946;2023-03-03T01:00:30;97284.94;;;8.90;76.92
19596;BME280;9945;46.010;8.946;2023-03-03T01:02:58;97282.31;;;8.90;76.76
19596;BME280;9945;46.010;8.946;2023-03-03T01:05:27;97288.38;;;8.90;78.07
19596;BME280;9945;46.010;8.946;2023-03-03T01:07:54;97282.84;;;8.93;75.71
19596;BME280;9945;46.010;8.946;2023-03-03T01:10:20;97280.66;;;8.89;76.16
19596;BME280;9945;46.010;8.946;2023-03-03T01:12:48;97280.41;;;8.82;75.76
19596;BME280;9945;46.010;8.946;2023-03-03T01:15:15;97286.44;;;8.83;77.46
19596;BME280;9945;46.010;8.946;2023-03-03T01:17:43;97283.00;;;8.82;77.02
19596;BME280;9945;46.010;8.946;2023-03-03T01:20:13;97281.91;;;8.75;76.75
19596;BME280;9945;46.010;8.946;2023-03-03T01:22:40;97277.91;;;8.71;77.32
19596;BME280;9945;46.010;8.946;2023-03-03T01:25:08;97272.38;;;8.55;77.26
19596;BME280;9945;46.010;8.946;2023-03-03T01:27:35;97276.66;;;8.65;77.81
19596;BME280;9945;46.010;8.946;2023-03-03T01:30:03;97272.41;;;8.64;77.73
19596;BME280;9945;46.010;8.946;2023-03-03T01:32:30;97276.38;;;8.68;77.30
19596;BME280;9945;46.010;8.946;2023-03-03T01:34:58;97276.09;;;8.62;76.12
19596;BME280;9945;46.010;8.946;2023-03-03T01:37:25;97267.56;;;8.50;77.62
19596;BME280;9945;46.010;8.946;2023-03-03T01:39:53;97273.16;;;8.46;78.22
19596;BME280;9945;46.010;8.946;2023-03-03T01:42:21;97277.84;;;8.52;77.64
19596;BME280;9945;46.010;8.946;2023-03-03T01:44:47;97272.63;;;8.52;76.74
19596;BME280;9945;46.010;8.946;2023-03-03T01:47:16;97272.94;;;8.58;76.10
19596;BME280;9945;46.010;8.946;2023-03-03T01:49:49;97270.97;;;8.51;76.89
19596;BME280;9945;46.010;8.946;2023-03-03T01:52:24;97275.94;;;8.54;77.18
19596;BME280;9945;46.010;8.946;2023-03-03T01:54:55;97266.59;;;8.42;76.88
19596;BME280;9945;46.010;8.946;2023-03-03T01:57:26;97265.06;;;8.39;78.05
19596;BME280;9945;46.010;8.946;2023-03-03T01:59:58;97260.09;;;8.36;76.59
19596;BME280;9945;46.010;8.946;2023-03-03T02:02:26;97260.22;;;8.34;78.78
19596;BME280;9945;46.010;8.946;2023-03-03T02:04:54;97255.72;;;8.37;77.60
19596;BME280;9945;46.010;8.946;2023-03-03T02:07:24;97255.00;;;8.34;77.75
19596;BME280;9945;46.010;8.946;2023-03-03T02:09:56;97251.72;;;8.32;78.09
19596;BME280;9945;46.010;8.946;2023-03-03T02:12:30;97249.75;;;8.25;77.90
19596;BME280;9945;46.010;8.946;2023-03-03T02:14:59;97243.69;;;8.15;79.11
19596;BME280;9945;46.010;8.946;2023-03-03T02:17:26;97246.78;;;8.09;77.99
19596;BME280;9945;46.010;8.946;2023-03-03T02:19:57;97232.69;;;8.11;78.44
19596;BME280;9945;46.010;8.946;2023-03-03T02:22:35;97232.84;;;8.19;78.91
19596;BME280;9945;46.010;8.946;2023-03-03T02:25:07;97229.69;;;8.16;79.10
19596;BME280;9945;46.010;8.946;2023-03-03T02:27:38;97225.84;;;8.20;78.34
19596;BME280;9945;46.010;8.946;2023-03-03T02:30:11;97221.88;;;8.16;78.87
19596;BME280;9945;46.010;8.946;2023-03-03T02:32:39;97224.19;;;8.19;77.48
19596;BME280;9945;46.010;8.946;2023-03-03T02:35:28;97223.19;;;8.10;78.77
19596;BME280;9945;46.010;8.946;2023-03-03T02:38:01;97219.53;;;8.22;77.41
19596;BME280;9945;46.010;8.946;2023-03-03T02:40:33;97213.75;;;8.19;76.83
19596;BME280;9945;46.010;8.946;2023-03-03T02:43:04;97212.94;;;8.18;78.19
19596;BME280;9945;46.010;8.946;2023-03-03T02:45:32;97209.78;;;8.15;78.58
19596;BME280;9945;46.010;8.946;2023-03-03T02:47:59;97205.66;;;8.12;77.19
19596;BME280;9945;46.010;8.946;2023-03-03T02:50:26;97204.69;;;8.13;78.69
19596;BME280;9945;46.010;8.946;2023-03-03T02:52:53;97204.25;;;8.08;78.97
19596;BME280;9945;46.010;8.946;2023-03-03T02:55:20;97203.00;;;8.03;78.32
19596;BME280;9945;46.010;8.946;2023-03-03T02:57:47;97201.09;;;8.05;77.74
19596;BME280;9945;46.010;8.946;2023-03-03T03:00:15;97203.53;;;7.96;79.32
19596;BME280;9945;46.010;8.946;2023-03-03T03:02:42;97195.81;;;7.85;78.95
19596;BME280;9945;46.010;8.946;2023-03-03T03:05:09;97187.28;;;7.83;79.21
19596;BME280;9945;46.010;8.946;2023-03-03T03:07:36;97190.50;;;7.66;81.43
19596;BME280;9945;46.010;8.946;2023-03-03T03:10:04;97192.50;;;7.83;79.73
19596;BME280;9945;46.010;8.946;2023-03-03T03:12:30;97185.50;;;7.84;79.13
19596;BME280;9945;46.010;8.946;2023-03-03T03:14:58;97197.34;;;7.88;79.64
19596;BME280;9945;46.010;8.946;2023-03-03T03:17:26;97191.16;;;7.89;79.08
19596;BME280;9945;46.010;8.946;2023-03-03T03:19:53;97191.88;;;7.91;78.55
19596;BME280;9945;46.010;8.946;2023-03-03T03:22:20;97188.81;;;7.86;78.97
19596;BME280;9945;46.010;8.946;2023-03-03T03:24:46;97185.66;;;7.82;79.79
19596;BME280;9945;46.010;8.946;2023-03-03T03:27:13;97176.19;;;7.81;80.14
19596;BME280;9945;46.010;8.946;2023-03-03T03:29:40;97181.13;;;7.84;79.63
19596;BME280;9945;46.010;8.946;2023-03-03T03:32:07;97178.81;;;7.81;79.53
19596;BME280;9945;46.010;8.946;2023-03-03T03:34:35;97187.56;;;7.80;78.97
19596;BME280;9945;46.010;8.946;2023-03-03T03:37:02;97178.66;;;7.83;78.40
19596;BME280;9945;46.010;8.946;2023-03-03T03:39:29;97179.47;;;7.83;79.85
19596;BME280;9945;46.010;8.946;2023-03-03T03:41:56;97178.09;;;7.79;79.97
19596;BME280;9945;46.010;8.946;2023-03-03T03:44:22;97173.28;;;7.75;78.48
19596;BME280;9945;46.010;8.946;2023-03-03T03:46:50;97168.88;;;7.75;79.31
19596;BME280;9945;46.010;8.946;2023-03-03T03:49:17;97171.78;;;7.72;80.04
19596;BME280;9945;46.010;8.946;2023-03-03T03:51:45;97169.03;;;7.74;79.58
19596;BME280;9945;46.010;8.946;2023-03-03T03:54:11;97166.69;;;7.71;79.82
19596;BME280;9945;46.010;8.946;2023-03-03T03:56:38;97169.66;;;7.66;80.54
19596;BME280;9945;46.010;8.946;2023-03-03T03:59:06;97167.75;;;7.68;80.13
19596;BME280;9945;46.010;8.946;2023-03-03T04:01:33;97168.59;;;7.69;79.38
19596;BME280;9945;46.010;8.946;2023-03-03T04:04:00;97162.56;;;7.68;80.12
19596;BME280;9945;46.010;8.946;2023-03-03T04:06:27;97164.34;;;7.68;79.39
19596;BME280;9945;46.010;8.946;2023-03-03T04:08:55;97165.81;;;7.60;81.03
19596;BME280;9945;46.010;8.946;2023-03-03T04:11:22;97170.31;;;7.58;79.82
19596;BME280;9945;46.010;8.946;2023-03-03T04:13:49;97157.59;;;7.55;81.02
19596;BME280;9945;46.010;8.946;2023-03-03T04:16:16;97156.75;;;7.55;80.79
19596;BME280;9945;46.010;8.946;2023-03-03T04:18:43;97160.59;;;7.60;80.15
19596;BME280;9945;46.010;8.946;2023-03-03T04:21:11;97153.50;;;7.63;79.54
19596;BME280;9945;46.010;8.946;2023-03-03T04:23:38;97157.06;;;7.62;80.31
19596;BME280;9945;46.010;8.946;2023-03-03T04:26:06;97156.81;;;7.65;79.41
19596;BME280;9945;46.010;8.946;2023-03-03T04:28:33;97147.97;;;7.56;80.50
19596;BME280;9945;46.010;8.946;2023-03-03T04:31:00;97145.88;;;7.50;80.85
19596;BME280;9945;46.010;8.946;2023-03-03T04:33:27;97150.00;;;7.52;81.25
19596;BME280;9945;46.010;8.946;2023-03-03T04:35:54;97149.31;;;7.50;82.06
19596;BME280;9945;46.010;8.946;2023-03-03T04:38:21;97142.72;;;7.46;81.43
19596;BME280;9945;46.010;8.946;2023-03-03T04:40:48;97140.81;;;7.48;81.69
19596;BME280;9945;46.010;8.946;2023-03-03T04:43:16;97147.66;;;7.49;81.67
19596;BME280;9945;46.010;8.946;2023-03-03T04:45:43;97143.56;;;7.47;81.31
19596;BME280;9945;46.010;8.946;2023-03-03T04:48:10;97138.91;;;7.50;82.01
19596;BME280;9945;46.010;8.946;2023-03-03T04:50:37;97140.00;;;7.48;82.38
19596;BME280;9945;46.010;8.946;2023-03-03T04:53:04;97135.75;;;7.47;82.40
19596;BME280;9945;46.010;8.946;2023-03-03T04:55:31;97137.66;;;7.45;82.09
19596;BME280;9945;46.010;8.946;2023-03-03T04:57:59;97137.94;;;7.51;81.85
19596;BME280;9945;46.010;8.946;2023-03-03T05:00:27;97139.84;;;7.49;82.10
19596;BME280;9945;46.010;8.946;2023-03-03T05:02:54;97140.53;;;7.51;82.12
19596;BME280;9945;46.010;8.946;2023-03-03T05:05:21;97138.06;;;7.50;81.42
19596;BME280;9945;46.010;8.946;2023-03-03T05:07:47;97138.59;;;7.44;82.47
19596;BME280;9945;46.010;8.946;2023-03-03T05:10:14;97144.88;;;7.41;82.63
19596;BME280;9945;46.010;8.946;2023-03-03T05:12:42;97140.53;;;7.51;80.73
19596;BME280;9945;46.010;8.946;2023-03-03T05:15:09;97138.06;;;7.50;80.83
19596;BME280;9945;46.010;8.946;2023-03-03T05:17:37;97135.88;;;7.45;81.22
19596;BME280;9945;46.010;8.946;2023-03-03T05:20:05;97130.38;;;7.39;82.24
19596;BME280;9945;46.010;8.946;2023-03-03T05:22:34;97135.41;;;7.40;81.64
19596;BME280;9945;46.010;8.946;2023-03-03T05:25:01;97138.31;;;7.37;82.07
19596;BME280;9945;46.010;8.946;2023-03-03T05:27:28;97138.44;;;7.36;83.28
19596;BME280;9945;46.010;8.946;2023-03-03T05:29:55;97137.59;;;7.35;82.88
19596;BME280;9945;46.010;8.946;2023-03-03T05:32:22;97139.63;;;7.32;83.14
19596;BME280;9945;46.010;8.946;2023-03-03T05:34:50;97137.19;;;7.30;83.00
19596;BME280;9945;46.010;8.946;2023-03-03T05:37:17;97143.22;;;7.31;83.07
19596;BME280;9945;46.010;8.946;2023-03-03T05:39:44;97133.03;;;7.28;83.50
19596;BME280;9945;46.010;8.946;2023-03-03T05:42:14;97142.84;;;7.14;83.49
19596;BME280;9945;46.010;8.946;2023-03-03T05:44:41;97138.13;;;7.29;83.28
19596;BME280;9945;46.010;8.946;2023-03-03T05:47:08;97132.91;;;7.29;83.14
19596;BME280;9945;46.010;8.946;2023-03-03T05:49:35;97140.56;;;7.21;83.91
19596;BME280;9945;46.010;8.946;2023-03-03T05:52:04;97138.78;;;7.21;83.59
19596;BME280;9945;46.010;8.946;2023-03-03T05:54:31;97135.22;;;7.22;83.20
19596;BME280;9945;46.010;8.946;2023-03-03T05:56:58;97138.06;;;7.19;83.61
19596;BME280;9945;46.010;8.946;2023-03-03T05:59:25;97135.59;;;7.18;83.97
19596;BME280;9945;46.010;8.946;2023-03-03T06:01:51;97139.53;;;7.12;84.86
19596;BME280;9945;46.010;8.946;2023-03-03T06:04:18;97141.50;;;7.20;84.70
19596;BME280;9945;46.010;8.946;2023-03-03T06:06:45;97146.31;;;7.25;83.82
19596;BME280;9945;46.010;8.946;2023-03-03T06:09:14;97143.59;;;7.26;83.68
19596;BME280;9945;46.010;8.946;2023-03-03T06:11:43;97146.06;;;7.28;84.30
19596;BME280;9945;46.010;8.946;2023-03-03T06:14:10;97147.00;;;7.27;83.71
19596;BME280;9945;46.010;8.946;2023-03-03T06:16:37;97144.81;;;7.22;84.22
19596;BME280;9945;46.010;8.946;2023-03-03T06:19:04;97145.34;;;7.26;83.79
19596;BME280;9945;46.010;8.946;2023-03-03T06:21:31;97141.03;;;7.36;83.11
19596;BME280;9945;46.010;8.946;2023-03-03T06:23:57;97141.84;;;7.36;82.75
19596;BME280;9945;46.010;8.946;2023-03-03T06:26:26;97141.72;;;7.38;83.75
19596;BME280;9945;46.010;8.946;2023-03-03T06:28:52;97149.97;;;7.43;83.31
19596;BME280;9945;46.010;8.946;2023-03-03T06:31:20;97148.19;;;7.43;82.50
19596;BME280;9945;46.010;8.946;2023-03-03T06:33:46;97152.41;;;7.35;83.19
19596;BME280;9945;46.010;8.946;2023-03-03T06:36:13;97147.81;;;7.48;83.87
19596;BME280;9945;46.010;8.946;2023-03-03T06:38:40;97157.06;;;7.62;82.45
19596;BME280;9945;46.010;8.946;2023-03-03T06:41:07;97152.13;;;7.68;81.42
19596;BME280;9945;46.010;8.946;2023-03-03T06:43:36;97161.34;;;7.72;81.70
19596;BME280;9945;46.010;8.946;2023-03-03T06:46:03;97154.41;;;7.82;82.50
19596;BME280;9945;46.010;8.946;2023-03-03T06:48:31;97164.16;;;7.90;81.78
19596;BME280;9945;46.010;8.946;2023-03-03T06:50:58;97162.78;;;7.95;81.22
19596;BME280;9945;46.010;8.946;2023-03-03T06:53:26;97167.06;;;7.96;80.63
19596;BME280;9945;46.010;8.946;2023-03-03T06:55:53;97164.19;;;8.09;80.82
19596;BME280;9945;46.010;8.946;2023-03-03T06:58:21;97163.38;;;8.18;81.30
19596;BME280;9945;46.010;8.946;2023-03-03T07:00:54;97168.50;;;8.29;79.78
19596;BME280;9945;46.010;8.946;2023-03-03T07:03:24;97164.97;;;8.40;80.43
19596;BME280;9945;46.010;8.946;2023-03-03T07:05:51;97176.25;;;8.41;79.35
19596;BME280;9945;46.010;8.946;2023-03-03T07:08:20;97171.72;;;8.62;77.89
19596;BME280;9945;46.010;8.946;2023-03-03T07:10:49;97173.50;;;8.61;79.25
19596;BME280;9945;46.010;8.946;2023-03-03T07:13:18;97171.84;;;8.89;77.89
19596;BME280;9945;46.010;8.946;2023-03-03T07:15:46;97178.03;;;8.98;76.38
19596;BME280;9945;46.010;8.946;2023-03-03T07:18:34;97174.97;;;9.12;75.54
19596;BME280;9945;46.010;8.946;2023-03-03T07:21:13;97184.69;;;9.39;74.81
19596;BME280;9945;46.010;8.946;2023-03-03T07:23:43;97179.13;;;9.61;74.69
19596;BME280;9945;46.010;8.946;2023-03-03T07:26:12;97184.63;;;9.68;74.96
19596;BME280;9945;46.010;8.946;2023-03-03T07:28:40;97181.13;;;9.86;73.86
19596;BME280;9945;46.010;8.946;2023-03-03T07:31:36;97176.44;;;10.08;73.11
19596;BME280;9945;46.010;8.946;2023-03-03T07:34:18;97180.78;;;10.27;71.60
19596;BME280;9945;46.010;8.946;2023-03-03T07:36:47;97183.03;;;10.39;70.24
19596;BME280;9945;46.010;8.946;2023-03-03T07:39:24;97191.31;;;10.62;69.48
19596;BME280;9945;46.010;8.946;2023-03-03T07:41:58;97176.88;;;10.76;68.30
19596;BME280;9945;46.010;8.946;2023-03-03T07:44:32;97181.22;;;10.85;67.50
19596;BME280;9945;46.010;8.946;2023-03-03T07:47:14;97181.56;;;11.08;65.84
19596;BME280;9945;46.010;8.946;2023-03-03T07:49:45;97185.81;;;11.09;65.99
19596;BME280;9945;46.010;8.946;2023-03-03T07:52:27;97173.41;;;10.93;64.92
19596;BME280;9945;46.010;8.946;2023-03-03T07:54:55;97174.44;;;11.00;64.84
19596;BME280;9945;46.010;8.946;2023-03-03T07:57:25;97167.34;;;11.10;63.46
19596;BME280;9945;46.010;8.946;2023-03-03T07:59:54;97166.78;;;11.24;63.40
19596;BME280;9945;46.010;8.946;2023-03-03T08:02:39;97167.19;;;11.63;62.54
19596;BME280;9945;46.010;8.946;2023-03-03T08:05:34;97165.75;;;11.95;61.46
19596;BME280;9945;46.010;8.946;2023-03-03T08:08:14;97165.34;;;12.16;60.58
19596;BME280;9945;46.010;8.946;2023-03-03T08:10:47;97166.63;;;12.11;58.51
19596;BME280;9945;46.010;8.946;2023-03-03T08:13:19;97165.38;;;12.24;57.89
19596;BME280;9945;46.010;8.946;2023-03-03T08:15:48;97163.47;;;12.50;58.08
19596;BME280;9945;46.010;8.946;2023-03-03T08:18:23;97169.06;;;12.63;57.16
19596;BME280;9945;46.010;8.946;2023-03-03T08:20:55;97165.44;;;12.56;56.69
19596;BME280;9945;46.010;8.946;2023-03-03T08:23:23;97168.25;;;12.71;55.30
19596;BME280;9945;46.010;8.946;2023-03-03T08:25:51;97160.53;;;12.85;55.64
19596;BME280;9945;46.010;8.946;2023-03-03T08:28:19;97158.72;;;13.02;55.13
19596;BME280;9945;46.010;8.946;2023-03-03T08:30:46;97163.34;;;12.84;54.88
19596;BME280;9945;46.010;8.946;2023-03-03T08:33:14;97151.84;;;13.09;54.82
19596;BME280;9945;46.010;8.946;2023-03-03T08:35:42;97156.78;;;12.96;57.17
19596;BME280;9945;46.010;8.946;2023-03-03T08:38:11;97145.63;;;13.35;54.48
19596;BME280;9945;46.010;8.946;2023-03-03T08:40:39;97151.31;;;13.54;55.86
19596;BME280;9945;46.010;8.946;2023-03-03T08:43:06;97145.16;;;13.78;55.05
19596;BME280;9945;46.010;8.946;2023-03-03T08:45:33;97154.13;;;14.00;53.11
19596;BME280;9945;46.010;8.946;2023-03-03T08:48:01;97150.84;;;14.37;52.55
19596;BME280;9945;46.010;8.946;2023-03-03T08:50:28;97146.34;;;14.15;52.72
19596;BME280;9945;46.010;8.946;2023-03-03T08:52:55;97145.00;;;14.19;51.83
19596;BME280;9945;46.010;8.946;2023-03-03T08:55:24;97156.56;;;14.49;51.38
19596;BME280;9945;46.010;8.946;2023-03-03T08:57:50;97145.84;;;14.73;51.21
19596;BME280;9945;46.010;8.946;2023-03-03T09:00:18;97158.00;;;15.05;50.90
19596;BME280;9945;46.010;8.946;2023-03-03T09:02:46;97154.34;;;15.06;50.62
19596;BME280;9945;46.010;8.946;2023-03-03T09:05:14;97148.56;;;14.65;50.78
19596;BME280;9945;46.010;8.946;2023-03-03T09:07:42;97149.13;;;15.21;49.46
19596;BME280;9945;46.010;8.946;2023-03-03T09:10:12;97148.00;;;15.52;47.79
19596;BME280;9945;46.010;8.946;2023-03-03T09:12:42;97153.97;;;15.99;46.70
19596;BME280;9945;46.010;8.946;2023-03-03T09:15:18;97152.66;;;16.09;46.52
19596;BME280;9945;46.010;8.946;2023-03-03T09:17:46;97156.19;;;16.16;46.02
19596;BME280;9945;46.010;8.946;2023-03-03T09:20:32;97153.91;;;16.28;45.16
19596;BME280;9945;46.010;8.946;2023-03-03T09:23:30;97153.63;;;16.38;45.71
19596;BME280;9945;46.010;8.946;2023-03-03T09:26:22;97153.78;;;16.66;44.68
19596;BME280;9945;46.010;8.946;2023-03-03T09:28:55;97154.53;;;16.81;45.47
19596;BME280;9945;46.010;8.946;2023-03-03T09:31:26;97154.19;;;17.33;44.30
19596;BME280;9945;46.010;8.946;2023-03-03T09:33:53;97156.78;;;17.82;43.20
19596;BME280;9945;46.010;8.946;2023-03-03T09:36:25;97158.59;;;18.16;41.97
19596;BME280;9945;46.010;8.946;2023-03-03T09:38:54;97163.75;;;18.31;41.74
19596;BME280;9945;46.010;8.946;2023-03-03T09:41:43;97162.16;;;18.36;40.74
19596;BME280;9945;46.010;8.946;2023-03-03T09:44:33;97166.47;;;19.05;38.99
19596;BME280;9945;46.010;8.946;2023-03-03T09:47:12;97162.97;;;19.83;37.50
19596;BME280;9945;46.010;8.946;2023-03-03T09:49:56;97157.47;;;20.56;36.78
19596;BME280;9945;46.010;8.946;2023-03-03T09:52:32;97162.75;;;21.00;35.07
19596;BME280;9945;46.010;8.946;2023-03-03T09:55:10;97154.78;;;21.75;33.95
19596;BME280;9945;46.010;8.946;2023-03-03T09:57:54;97154.06;;;21.86;33.86
19596;BME280;9945;46.010;8.946;2023-03-03T10:00:38;97163.34;;;23.05;31.16
19596;BME280;9945;46.010;8.946;2023-03-03T10:03:30;97155.28;;;24.28;29.79
19596;BME280;9945;46.010;8.946;2023-03-03T10:06:10;97159.06;;;25.12;28.62
19596;BME280;9945;46.010;8.946;2023-03-03T10:08:49;97157.19;;;25.96;27.63
19596;BME280;9945;46.010;8.946;2023-03-03T10:11:22;97163.56;;;26.72;26.11
19596;BME280;9945;46.010;8.946;2023-03-03T10:14:09;97169.38;;;27.39;25.62
19596;BME280;9945;46.010;8.946;2023-03-03T10:17:20;97159.53;;;28.24;24.00
19596;BME280;9945;46.010;8.946;2023-03-03T10:20:02;97162.50;;;28.28;23.56
19596;BME280;9945;46.010;8.946;2023-03-03T10:22:35;97155.56;;;29.80;22.63
19596;BME280;9945;46.010;8.946;2023-03-03T10:25:16;97161.72;;;29.05;21.70
19596;BME280;9945;46.010;8.946;2023-03-03T10:27:59;97168.50;;;29.78;21.46
19596;BME280;9945;46.010;8.946;2023-03-03T10:30:37;97168.16;;;31.00;20.53
19596;BME280;9945;46.010;8.946;2023-03-03T10:33:11;97155.84;;;29.58;21.78
19596;BME280;9945;46.010;8.946;2023-03-03T10:35:56;97159.09;;;31.58;19.86
19596;BME280;9945;46.010;8.946;2023-03-03T10:38:37;97159.31;;;33.10;18.07
19596;BME280;9945;46.010;8.946;2023-03-03T10:41:29;97159.97;;;33.91;17.96
19596;BME280;9945;46.010;8.946;2023-03-03T10:44:27;97156.44;;;32.40;18.56
19596;BME280;9945;46.010;8.946;2023-03-03T10:47:03;97164.94;;;34.16;17.10
19596;BME280;9945;46.010;8.946;2023-03-03T10:49:46;97155.22;;;35.06;16.00
19596;BME280;9945;46.010;8.946;2023-03-03T10:52:25;97160.09;;;33.99;16.79
19596;BME280;9945;46.010;8.946;2023-03-03T10:55:26;97156.47;;;33.71;17.23
19596;BME280;9945;46.010;8.946;2023-03-03T10:58:08;97154.78;;;34.63;16.61
19596;BME280;9945;46.010;8.946;2023-03-03T11:00:44;97157.78;;;37.27;15.29
19596;BME280;9945;46.010;8.946;2023-03-03T11:06:37;97156.00;;;39.59;13.99
19596;BME280;9945;46.010;8.946;2023-03-03T11:09:12;97152.34;;;38.84;13.90
19596;BME280;9945;46.010;8.946;2023-03-03T11:11:48;97151.13;;;40.22;12.67
19596;BME280;9945;46.010;8.946;2023-03-03T11:14:25;97156.09;;;40.77;12.73
19596;BME280;9945;46.010;8.946;2023-03-03T11:16:59;97146.78;;;42.18;12.02
19596;BME280;9945;46.010;8.946;2023-03-03T11:19:39;97144.59;;;42.74;11.21
19596;BME280;9945;46.010;8.946;2023-03-03T11:22:20;97141.31;;;43.19;11.18
19596;BME280;9945;46.010;8.946;2023-03-03T11:25:00;97139.00;;;43.83;10.71
19596;BME280;9945;46.010;8.946;2023-03-03T11:27:44;97138.19;;;43.59;10.68
19596;BME280;9945;46.010;8.946;2023-03-03T11:30:29;97135.38;;;44.21;10.79
19596;BME280;9945;46.010;8.946;2023-03-03T11:33:01;97131.84;;;43.39;11.42
19596;BME280;9945;46.010;8.946;2023-03-03T11:35:35;97127.34;;;43.70;10.43
19596;BME280;9945;46.010;8.946;2023-03-03T11:38:18;97131.91;;;45.03;9.97
19596;BME280;9945;46.010;8.946;2023-03-03T11:40:52;97126.53;;;45.77;9.17
19596;BME280;9945;46.010;8.946;2023-03-03T11:43:26;97122.22;;;45.83;9.33
19596;BME280;9945;46.010;8.946;2023-03-03T11:45:58;97121.91;;;46.32;8.95
19596;BME280;9945;46.010;8.946;2023-03-03T11:48:34;97113.75;;;43.81;9.96
19596;BME280;9945;46.010;8.946;2023-03-03T11:51:05;97118.44;;;43.99;10.29
19596;BME280;9945;46.010;8.946;2023-03-03T11:53:53;97108.03;;;43.70;9.69
19596;BME280;9945;46.010;8.946;2023-03-03T11:56:27;97097.88;;;41.83;11.39
19596;BME280;9945;46.010;8.946;2023-03-03T11:59:08;97105.16;;;40.56;11.90
19596;BME280;9945;46.010;8.946;2023-03-03T12:01:43;97094.38;;;41.71;11.39
19596;BME280;9945;46.010;8.946;2023-03-03T12:04:13;97093.31;;;44.08;10.20
19596;BME280;9945;46.010;8.946;2023-03-03T12:06:52;97090.34;;;44.69;9.74
19596;BME280;9945;46.010;8.946;2023-03-03T12:09:37;97077.97;;;45.49;9.31
19596;BME280;9945;46.010;8.946;2023-03-03T12:12:07;97079.50;;;45.84;9.41
19596;BME280;9945;46.010;8.946;2023-03-03T12:14:56;97083.19;;;46.46;8.71
19596;BME280;9945;46.010;8.946;2023-03-03T12:20:27;97083.25;;;44.98;9.95
19596;BME280;9945;46.010;8.946;2023-03-03T12:23:07;97068.94;;;42.05;10.97
19596;BME280;9945;46.010;8.946;2023-03-03T12:25:41;97064.94;;;42.18;11.52
19596;BME280;9945;46.010;8.946;2023-03-03T12:28:13;97069.56;;;43.00;10.70
19596;BME280;9945;46.010;8.946;2023-03-03T12:31:08;97059.78;;;40.86;11.32
19596;BME280;9945;46.010;8.946;2023-03-03T12:33:51;97073.94;;;40.36;11.88
19596;BME280;9945;46.010;8.946;2023-03-03T12:36:42;97057.63;;;41.79;11.76
19596;BME280;9945;46.010;8.946;2023-03-03T12:39:22;97058.00;;;42.75;10.82
19596;BME280;9945;46.010;8.946;2023-03-03T12:41:58;97046.69;;;42.80;10.61
19596;BME280;9945;46.010;8.946;2023-03-03T12:44:32;97048.97;;;42.94;10.64
19596;BME280;9945;46.010;8.946;2023-03-03T12:47:07;97041.19;;;40.95;11.52
19596;BME280;9945;46.010;8.946;2023-03-03T12:49:39;97037.66;;;41.23;11.17
19596;BME280;9945;46.010;8.946;2023-03-03T12:52:19;97029.00;;;39.59;12.46
19596;BME280;9945;46.010;8.946;2023-03-03T12:54:59;97021.16;;;37.27;13.69
19596;BME280;9945;46.010;8.946;2023-03-03T12:57:34;97018.47;;;33.41;16.66
19596;BME280;9945;46.010;8.946;2023-03-03T13:00:18;97018.41;;;34.14;16.69
19596;BME280;9945;46.010;8.946;2023-03-03T13:03:04;97017.94;;;34.62;15.13
19596;BME280;9945;46.010;8.946;2023-03-03T13:05:45;97019.91;;;35.28;15.08
19596;BME280;9945;46.010;8.946;2023-03-03T13:08:24;97013.31;;;33.86;16.83
19596;BME280;9945;46.010;8.946;2023-03-03T13:11:03;97009.63;;;32.65;17.55
19596;BME280;9945;46.010;8.946;2023-03-03T13:13:39;97007.38;;;32.11;17.74
19596;BME280;9945;46.010;8.946;2023-03-03T13:16:18;97010.94;;;28.98;19.74
19596;BME280;9945;46.010;8.946;2023-03-03T13:18:52;97008.75;;;29.30;19.33
19596;BME280;9945;46.010;8.946;2023-03-03T13:21:25;97017.78;;;29.95;19.72
19596;BME280;9945;46.010;8.946;2023-03-03T13:24:00;97018.19;;;29.53;20.78
19596;BME280;9945;46.010;8.946;2023-03-03T13:26:32;97019.84;;;30.24;19.46
19596;BME280;9945;46.010;8.946;2023-03-03T13:29:14;97021.97;;;30.76;19.05
19596;BME280;9945;46.010;8.946;2023-03-03T13:31:46;97011.47;;;32.09;17.97
19596;BME280;9945;46.010;8.946;2023-03-03T13:34:19;97015.25;;;33.39;16.05
19596;BME280;9945;46.010;8.946;2023-03-03T13:36:54;97017.50;;;34.19;15.98
19596;BME280;9945;46.010;8.946;2023-03-03T13:39:24;97014.50;;;33.01;17.47
19596;BME280;9945;46.010;8.946;2023-03-03T13:41:57;97018.81;;;32.69;17.01
19596;BME280;9945;46.010;8.946;2023-03-03T13:44:30;97020.00;;;34.29;15.79
19596;BME280;9945;46.010;8.946;2023-03-03T13:47:05;97015.00;;;34.95;15.96
19596;BME280;9945;46.010;8.946;2023-03-03T13:49:46;97016.38;;;35.28;14.82
19596;BME280;9945;46.010;8.946;2023-03-03T13:52:19;97025.84;;;35.61;14.76
19596;BME280;9945;46.010;8.946;2023-03-03T13:55:03;97020.94;;;35.19;15.19